sensor_id;sensor_type;location;lat;lon;timestamp;P1;durP1;ratioP1;P2;durP2;ratioP2
21671;SDS011;10997;52.242;8.168;2023-06-14T00:01:07;5.68;;;2.90;;
21671;SDS011;10997;52.242;8.168;2023-06-14T00:06:09;5.00;;;2.70;;
21671;SDS011;10997;52.242;8.168;2023-06-14T00:11:10;7.22;;;3.20;;
21671;SDS011;10997;52.242;8.168;2023-06-14T00:16:10;4.60;;;3.03;;
21671;SDS011;10997;52.242;8.168;2023-06-14T00:21:11;4.82;;;3.10;;
21671;SDS011;10997;52.242;8.168;2023-06-14T00:26:12;5.13;;;3.20;;
21671;SDS011;10997;52.242;8.168;2023-06-14T00:31:12;9.07;;;2.83;;
21671;SDS011;10997;52.242;8.168;2023-06-14T00:36:13;4.68;;;3.22;;
21671;SDS011;10997;52.242;8.168;2023-06-14T00:41:13;3.55;;;2.80;;
21671;SDS011;10997;52.242;8.168;2023-06-14T00:46:14;7.85;;;3.10;;
21671;SDS011;10997;52.242;8.168;2023-06-14T00:51:15;7.90;;;3.13;;
21671;SDS011;10997;52.242;8.168;2023-06-14T00:56:15;8.57;;;3.88;;
21671;SDS011;10997;52.242;8.168;2023-06-14T01:01:16;6.53;;;3.28;;
21671;SDS011;10997;52.242;8.168;2023-06-14T01:11:47;4.43;;;2.80;;
21671;SDS011;10997;52.242;8.168;2023-06-14T01:16:57;5.55;;;2.92;;
21671;SDS011;10997;52.242;8.168;2023-06-14T01:22:00;5.18;;;3.10;;
21671;SDS011;10997;52.242;8.168;2023-06-14T01:27:01;6.50;;;3.40;;
21671;SDS011;10997;52.242;8.168;2023-06-14T01:32:02;7.07;;;3.00;;
21671;SDS011;10997;52.242;8.168;2023-06-14T01:37:04;6.28;;;3.45;;
21671;SDS011;10997;52.242;8.168;2023-06-14T01:42:05;6.13;;;3.20;;
21671;SDS011;10997;52.242;8.168;2023-06-14T01:47:06;4.85;;;2.80;;
21671;SDS011;10997;52.242;8.168;2023-06-14T01:52:08;4.10;;;2.95;;
21671;SDS011;10997;52.242;8.168;2023-06-14T01:57:09;11.75;;;3.72;;
21671;SDS011;10997;52.242;8.168;2023-06-14T02:02:10;7.85;;;3.30;;
21671;SDS011;10997;52.242;8.168;2023-06-14T02:07:11;7.07;;;3.70;;
21671;SDS011;10997;52.242;8.168;2023-06-14T02:12:11;7.85;;;3.42;;
21671;SDS011;10997;52.242;8.168;2023-06-14T02:17:12;6.90;;;3.55;;
21671;SDS011;10997;52.242;8.168;2023-06-14T02:22:12;7.25;;;3.38;;
21671;SDS011;10997;52.242;8.168;2023-06-14T02:27:14;4.97;;;3.50;;
21671;SDS011;10997;52.242;8.168;2023-06-14T02:32:15;5.60;;;3.92;;
21671;SDS011;10997;52.242;8.168;2023-06-14T02:37:16;6.13;;;3.50;;
21671;SDS011;10997;52.242;8.168;2023-06-14T02:42:17;6.38;;;3.42;;
21671;SDS011;10997;52.242;8.168;2023-06-14T02:47:17;5.85;;;3.90;;
21671;SDS011;10997;52.242;8.168;2023-06-14T02:52:19;9.27;;;3.80;;
21671;SDS011;10997;52.242;8.168;2023-06-14T02:57:21;7.90;;;3.95;;
21671;SDS011;10997;52.242;8.168;2023-06-14T03:02:22;5.20;;;3.50;;
21671;SDS011;10997;52.242;8.168;2023-06-14T03:07:22;5.93;;;3.65;;
21671;SDS011;10997;52.242;8.168;2023-06-14T03:12:25;5.05;;;3.47;;
21671;SDS011;10997;52.242;8.168;2023-06-14T03:17:26;6.57;;;3.92;;
21671;SDS011;10997;52.242;8.168;2023-06-14T03:22:29;5.07;;;4.07;;
21671;SDS011;10997;52.242;8.168;2023-06-14T03:27:30;4.68;;;3.70;;
21671;SDS011;10997;52.242;8.168;2023-06-14T03:32:31;4.72;;;4.00;;
21671;SDS011;10997;52.242;8.168;2023-06-14T03:37:33;7.65;;;3.97;;
21671;SDS011;10997;52.242;8.168;2023-06-14T03:42:33;6.38;;;3.92;;
21671;SDS011;10997;52.242;8.168;2023-06-14T03:47:34;5.53;;;4.03;;
21671;SDS011;10997;52.242;8.168;2023-06-14T03:52:35;5.55;;;3.90;;
21671;SDS011;10997;52.242;8.168;2023-06-14T03:57:36;5.90;;;3.85;;
21671;SDS011;10997;52.242;8.168;2023-06-14T04:02:37;9.60;;;4.30;;
21671;SDS011;10997;52.242;8.168;2023-06-14T04:07:37;6.90;;;3.63;;
21671;SDS011;10997;52.242;8.168;2023-06-14T04:12:44;7.35;;;4.30;;
21671;SDS011;10997;52.242;8.168;2023-06-14T04:17:45;6.63;;;4.07;;
21671;SDS011;10997;52.242;8.168;2023-06-14T04:22:46;6.13;;;3.80;;
21671;SDS011;10997;52.242;8.168;2023-06-14T04:27:46;9.23;;;4.30;;
21671;SDS011;10997;52.242;8.168;2023-06-14T04:32:47;5.10;;;4.00;;
21671;SDS011;10997;52.242;8.168;2023-06-14T04:37:49;6.25;;;4.10;;
21671;SDS011;10997;52.242;8.168;2023-06-14T04:42:50;8.68;;;4.50;;
21671;SDS011;10997;52.242;8.168;2023-06-14T04:47:51;6.97;;;4.45;;
21671;SDS011;10997;52.242;8.168;2023-06-14T04:52:57;6.95;;;4.10;;
21671;SDS011;10997;52.242;8.168;2023-06-14T04:57:59;9.38;;;4.65;;
21671;SDS011;10997;52.242;8.168;2023-06-14T05:03:00;6.72;;;4.35;;
21671;SDS011;10997;52.242;8.168;2023-06-14T05:08:01;5.47;;;4.30;;
21671;SDS011;10997;52.242;8.168;2023-06-14T05:13:01;12.77;;;3.90;;
21671;SDS011;10997;52.242;8.168;2023-06-14T05:18:02;11.23;;;3.65;;
21671;SDS011;10997;52.242;8.168;2023-06-14T05:23:03;9.70;;;3.78;;
21671;SDS011;10997;52.242;8.168;2023-06-14T05:28:04;6.90;;;4.00;;
21671;SDS011;10997;52.242;8.168;2023-06-14T05:33:05;6.40;;;3.55;;
21671;SDS011;10997;52.242;8.168;2023-06-14T05:38:06;8.18;;;3.42;;
21671;SDS011;10997;52.242;8.168;2023-06-14T05:43:07;8.68;;;3.40;;
21671;SDS011;10997;52.242;8.168;2023-06-14T05:48:08;8.13;;;3.00;;
21671;SDS011;10997;52.242;8.168;2023-06-14T05:53:08;5.85;;;3.28;;
21671;SDS011;10997;52.242;8.168;2023-06-14T05:58:09;5.53;;;3.13;;
21671;SDS011;10997;52.242;8.168;2023-06-14T06:03:10;4.07;;;2.40;;
21671;SDS011;10997;52.242;8.168;2023-06-14T06:08:11;5.95;;;2.65;;
21671;SDS011;10997;52.242;8.168;2023-06-14T06:13:11;4.30;;;2.65;;
21671;SDS011;10997;52.242;8.168;2023-06-14T06:18:12;4.63;;;2.58;;
21671;SDS011;10997;52.242;8.168;2023-06-14T06:23:13;3.80;;;2.20;;
21671;SDS011;10997;52.242;8.168;2023-06-14T06:28:14;5.28;;;2.20;;
21671;SDS011;10997;52.242;8.168;2023-06-14T06:33:14;4.32;;;2.28;;
21671;SDS011;10997;52.242;8.168;2023-06-14T06:38:15;6.00;;;2.38;;
21671;SDS011;10997;52.242;8.168;2023-06-14T06:43:15;6.68;;;2.63;;
21671;SDS011;10997;52.242;8.168;2023-06-14T06:48:17;2.83;;;2.40;;
21671;SDS011;10997;52.242;8.168;2023-06-14T06:53:18;3.67;;;2.25;;
21671;SDS011;10997;52.242;8.168;2023-06-14T06:58:19;5.13;;;2.45;;
21671;SDS011;10997;52.242;8.168;2023-06-14T07:03:22;2.60;;;2.15;;
21671;SDS011;10997;52.242;8.168;2023-06-14T07:08:23;5.90;;;2.50;;
21671;SDS011;10997;52.242;8.168;2023-06-14T07:13:23;4.93;;;2.50;;
21671;SDS011;10997;52.242;8.168;2023-06-14T07:18:24;3.53;;;2.25;;
21671;SDS011;10997;52.242;8.168;2023-06-14T07:23:25;6.70;;;2.70;;
21671;SDS011;10997;52.242;8.168;2023-06-14T07:28:25;3.13;;;2.35;;
21671;SDS011;10997;52.242;8.168;2023-06-14T07:33:26;3.08;;;2.30;;
21671;SDS011;10997;52.242;8.168;2023-06-14T07:38:27;6.80;;;2.35;;
21671;SDS011;10997;52.242;8.168;2023-06-14T07:43:27;3.33;;;2.10;;
21671;SDS011;10997;52.242;8.168;2023-06-14T07:48:28;3.47;;;2.28;;
21671;SDS011;10997;52.242;8.168;2023-06-14T07:53:29;3.53;;;1.90;;
21671;SDS011;10997;52.242;8.168;2023-06-14T07:58:30;2.13;;;1.83;;
21671;SDS011;10997;52.242;8.168;2023-06-14T08:03:31;3.60;;;2.28;;
21671;SDS011;10997;52.242;8.168;2023-06-14T08:08:32;3.25;;;1.67;;
21671;SDS011;10997;52.242;8.168;2023-06-14T08:13:33;2.72;;;1.63;;
21671;SDS011;10997;52.242;8.168;2023-06-14T08:18:35;3.78;;;1.63;;
21671;SDS011;10997;52.242;8.168;2023-06-14T08:23:35;2.88;;;1.88;;
21671;SDS011;10997;52.242;8.168;2023-06-14T08:28:36;5.57;;;2.08;;
21671;SDS011;10997;52.242;8.168;2023-06-14T08:33:37;4.53;;;1.90;;
21671;SDS011;10997;52.242;8.168;2023-06-14T08:38:39;2.78;;;1.73;;
21671;SDS011;10997;52.242;8.168;2023-06-14T08:43:39;4.65;;;1.80;;
21671;SDS011;10997;52.242;8.168;2023-06-14T08:48:40;3.92;;;2.30;;
21671;SDS011;10997;52.242;8.168;2023-06-14T08:53:41;5.57;;;2.05;;
21671;SDS011;10997;52.242;8.168;2023-06-14T08:58:43;3.28;;;1.70;;
21671;SDS011;10997;52.242;8.168;2023-06-14T09:03:45;3.28;;;1.60;;
21671;SDS011;10997;52.242;8.168;2023-06-14T09:08:46;2.65;;;1.67;;
21671;SDS011;10997;52.242;8.168;2023-06-14T09:13:50;3.85;;;1.60;;
21671;SDS011;10997;52.242;8.168;2023-06-14T09:18:50;2.50;;;1.70;;
21671;SDS011;10997;52.242;8.168;2023-06-14T09:23:51;2.72;;;1.80;;
21671;SDS011;10997;52.242;8.168;2023-06-14T09:28:53;2.90;;;1.80;;
21671;SDS011;10997;52.242;8.168;2023-06-14T09:33:55;2.25;;;1.60;;
21671;SDS011;10997;52.242;8.168;2023-06-14T09:38:57;2.05;;;1.80;;
21671;SDS011;10997;52.242;8.168;2023-06-14T09:43:59;2.83;;;1.60;;
21671;SDS011;10997;52.242;8.168;2023-06-14T09:49:02;2.17;;;1.65;;
21671;SDS011;10997;52.242;8.168;2023-06-14T09:54:04;2.92;;;1.50;;
21671;SDS011;10997;52.242;8.168;2023-06-14T09:59:05;2.33;;;1.77;;
21671;SDS011;10997;52.242;8.168;2023-06-14T10:04:09;2.85;;;1.58;;
21671;SDS011;10997;52.242;8.168;2023-06-14T10:09:10;3.45;;;1.50;;
21671;SDS011;10997;52.242;8.168;2023-06-14T10:14:12;4.13;;;1.48;;
21671;SDS011;10997;52.242;8.168;2023-06-14T10:19:23;1.92;;;1.60;;
21671;SDS011;10997;52.242;8.168;2023-06-14T10:24:30;3.72;;;1.52;;
21671;SDS011;10997;52.242;8.168;2023-06-14T10:29:33;5.88;;;1.55;;
21671;SDS011;10997;52.242;8.168;2023-06-14T10:34:34;5.43;;;1.60;;
21671;SDS011;10997;52.242;8.168;2023-06-14T10:39:40;3.33;;;1.70;;
21671;SDS011;10997;52.242;8.168;2023-06-14T10:44:50;6.63;;;1.60;;
21671;SDS011;10997;52.242;8.168;2023-06-14T10:49:53;1.80;;;1.60;;
21671;SDS011;10997;52.242;8.168;2023-06-14T11:00:23;1.65;;;1.48;;
21671;SDS011;10997;52.242;8.168;2023-06-14T11:05:27;3.30;;;1.60;;
21671;SDS011;10997;52.242;8.168;2023-06-14T11:15:45;1.92;;;1.58;;
21671;SDS011;10997;52.242;8.168;2023-06-14T11:20:49;2.28;;;1.75;;
21671;SDS011;10997;52.242;8.168;2023-06-14T11:25:52;2.90;;;1.67;;
21671;SDS011;10997;52.242;8.168;2023-06-14T11:31:00;2.83;;;1.67;;
21671;SDS011;10997;52.242;8.168;2023-06-14T11:36:05;2.83;;;1.50;;
21671;SDS011;10997;52.242;8.168;2023-06-14T11:41:08;2.20;;;1.50;;
21671;SDS011;10997;52.242;8.168;2023-06-14T11:46:12;5.15;;;1.50;;
21671;SDS011;10997;52.242;8.168;2023-06-14T11:51:18;2.40;;;1.60;;
21671;SDS011;10997;52.242;8.168;2023-06-14T11:56:19;3.35;;;1.27;;
21671;SDS011;10997;52.242;8.168;2023-06-14T12:01:20;1.95;;;1.50;;
21671;SDS011;10997;52.242;8.168;2023-06-14T12:06:27;1.90;;;1.38;;
21671;SDS011;10997;52.242;8.168;2023-06-14T12:11:34;1.48;;;1.38;;
21671;SDS011;10997;52.242;8.168;2023-06-14T12:16:36;1.73;;;1.30;;
21671;SDS011;10997;52.242;8.168;2023-06-14T12:21:38;3.97;;;1.50;;
21671;SDS011;10997;52.242;8.168;2023-06-14T12:26:43;3.58;;;1.48;;
21671;SDS011;10997;52.242;8.168;2023-06-14T12:31:43;2.88;;;1.30;;
21671;SDS011;10997;52.242;8.168;2023-06-14T12:36:44;3.95;;;1.55;;
21671;SDS011;10997;52.242;8.168;2023-06-14T12:41:46;2.95;;;1.40;;
21671;SDS011;10997;52.242;8.168;2023-06-14T12:46:47;2.13;;;1.15;;
21671;SDS011;10997;52.242;8.168;2023-06-14T12:51:47;2.20;;;1.20;;
21671;SDS011;10997;52.242;8.168;2023-06-14T12:56:48;3.10;;;1.33;;
21671;SDS011;10997;52.242;8.168;2023-06-14T13:01:51;7.75;;;1.80;;
21671;SDS011;10997;52.242;8.168;2023-06-14T13:06:53;3.42;;;1.50;;
21671;SDS011;10997;52.242;8.168;2023-06-14T13:11:54;2.92;;;1.60;;
21671;SDS011;10997;52.242;8.168;2023-06-14T13:16:54;1.73;;;1.25;;
21671;SDS011;10997;52.242;8.168;2023-06-14T13:21:55;3.92;;;1.50;;
21671;SDS011;10997;52.242;8.168;2023-06-14T13:26:56;7.95;;;1.80;;
21671;SDS011;10997;52.242;8.168;2023-06-14T13:31:57;1.88;;;1.50;;
21671;SDS011;10997;52.242;8.168;2023-06-14T13:36:58;2.03;;;1.52;;
21671;SDS011;10997;52.242;8.168;2023-06-14T13:42:02;4.88;;;1.83;;
21671;SDS011;10997;52.242;8.168;2023-06-14T13:47:03;3.17;;;1.83;;
21671;SDS011;10997;52.242;8.168;2023-06-14T13:52:04;3.50;;;1.85;;
21671;SDS011;10997;52.242;8.168;2023-06-14T13:57:04;7.78;;;1.70;;
21671;SDS011;10997;52.242;8.168;2023-06-14T14:02:07;3.13;;;1.77;;
21671;SDS011;10997;52.242;8.168;2023-06-14T14:07:08;6.57;;;1.83;;
21671;SDS011;10997;52.242;8.168;2023-06-14T14:12:09;4.53;;;2.38;;
21671;SDS011;10997;52.242;8.168;2023-06-14T14:17:10;4.25;;;1.80;;
21671;SDS011;10997;52.242;8.168;2023-06-14T14:22:10;3.90;;;1.98;;
21671;SDS011;10997;52.242;8.168;2023-06-14T14:27:11;2.60;;;1.80;;
21671;SDS011;10997;52.242;8.168;2023-06-14T14:32:12;3.70;;;2.20;;
21671;SDS011;10997;52.242;8.168;2023-06-14T14:37:14;3.47;;;2.40;;
21671;SDS011;10997;52.242;8.168;2023-06-14T14:42:15;4.45;;;2.28;;
21671;SDS011;10997;52.242;8.168;2023-06-14T14:47:15;3.03;;;2.30;;
21671;SDS011;10997;52.242;8.168;2023-06-14T14:52:16;4.47;;;2.10;;
21671;SDS011;10997;52.242;8.168;2023-06-14T14:57:17;3.85;;;2.25;;
21671;SDS011;10997;52.242;8.168;2023-06-14T15:02:17;6.10;;;2.30;;
21671;SDS011;10997;52.242;8.168;2023-06-14T15:07:19;4.88;;;2.17;;
21671;SDS011;10997;52.242;8.168;2023-06-14T15:12:20;5.72;;;2.30;;
21671;SDS011;10997;52.242;8.168;2023-06-14T15:17:23;6.55;;;2.55;;
21671;SDS011;10997;52.242;8.168;2023-06-14T15:22:24;5.35;;;2.70;;
21671;SDS011;10997;52.242;8.168;2023-06-14T15:27:25;4.55;;;2.20;;
21671;SDS011;10997;52.242;8.168;2023-06-14T15:32:25;3.63;;;2.40;;
21671;SDS011;10997;52.242;8.168;2023-06-14T15:37:26;5.88;;;2.17;;
21671;SDS011;10997;52.242;8.168;2023-06-14T15:42:27;3.03;;;1.75;;
21671;SDS011;10997;52.242;8.168;2023-06-14T15:47:27;6.03;;;2.17;;
21671;SDS011;10997;52.242;8.168;2023-06-14T15:52:28;4.70;;;2.40;;
21671;SDS011;10997;52.242;8.168;2023-06-14T15:57:29;13.05;;;2.67;;
21671;SDS011;10997;52.242;8.168;2023-06-14T16:02:30;4.60;;;2.42;;
21671;SDS011;10997;52.242;8.168;2023-06-14T16:07:31;5.43;;;2.90;;
21671;SDS011;10997;52.242;8.168;2023-06-14T16:12:31;8.98;;;3.65;;
21671;SDS011;10997;52.242;8.168;2023-06-14T16:17:32;6.53;;;2.50;;
21671;SDS011;10997;52.242;8.168;2023-06-14T16:22:32;9.45;;;5.57;;
21671;SDS011;10997;52.242;8.168;2023-06-14T16:27:33;5.90;;;3.20;;
21671;SDS011;10997;52.242;8.168;2023-06-14T16:32:33;4.28;;;2.75;;
21671;SDS011;10997;52.242;8.168;2023-06-14T16:37:34;4.53;;;2.50;;
21671;SDS011;10997;52.242;8.168;2023-06-14T16:42:35;3.55;;;2.65;;
21671;SDS011;10997;52.242;8.168;2023-06-14T16:47:36;5.22;;;2.55;;
21671;SDS011;10997;52.242;8.168;2023-06-14T16:52:36;3.45;;;2.65;;
21671;SDS011;10997;52.242;8.168;2023-06-14T16:57:37;5.00;;;2.47;;
21671;SDS011;10997;52.242;8.168;2023-06-14T17:02:39;6.97;;;2.80;;
21671;SDS011;10997;52.242;8.168;2023-06-14T17:07:39;5.45;;;2.50;;
21671;SDS011;10997;52.242;8.168;2023-06-14T17:12:40;5.78;;;2.88;;
21671;SDS011;10997;52.242;8.168;2023-06-14T17:17:41;5.75;;;2.97;;
21671;SDS011;10997;52.242;8.168;2023-06-14T17:22:41;3.92;;;2.80;;
21671;SDS011;10997;52.242;8.168;2023-06-14T17:27:42;3.80;;;2.80;;
21671;SDS011;10997;52.242;8.168;2023-06-14T17:32:43;6.72;;;3.08;;
21671;SDS011;10997;52.242;8.168;2023-06-14T17:37:43;8.60;;;3.00;;
21671;SDS011;10997;52.242;8.168;2023-06-14T17:42:44;5.10;;;3.00;;
21671;SDS011;10997;52.242;8.168;2023-06-14T17:47:44;7.75;;;3.20;;
21671;SDS011;10997;52.242;8.168;2023-06-14T17:52:45;4.97;;;3.13;;
21671;SDS011;10997;52.242;8.168;2023-06-14T17:57:47;6.65;;;3.30;;
21671;SDS011;10997;52.242;8.168;2023-06-14T18:02:47;7.28;;;3.58;;
21671;SDS011;10997;52.242;8.168;2023-06-14T18:07:48;5.38;;;3.22;;
21671;SDS011;10997;52.242;8.168;2023-06-14T18:12:49;7.53;;;3.35;;
21671;SDS011;10997;52.242;8.168;2023-06-14T18:17:49;7.57;;;3.40;;
21671;SDS011;10997;52.242;8.168;2023-06-14T18:22:52;6.30;;;3.20;;
21671;SDS011;10997;52.242;8.168;2023-06-14T18:27:54;5.40;;;3.17;;
21671;SDS011;10997;52.242;8.168;2023-06-14T18:32:55;7.13;;;3.50;;
21671;SDS011;10997;52.242;8.168;2023-06-14T18:37:55;4.43;;;3.17;;
21671;SDS011;10997;52.242;8.168;2023-06-14T18:42:59;11.15;;;3.30;;
21671;SDS011;10997;52.242;8.168;2023-06-14T18:47:59;7.03;;;3.70;;
21671;SDS011;10997;52.242;8.168;2023-06-14T18:53:00;6.10;;;2.83;;
21671;SDS011;10997;52.242;8.168;2023-06-14T18:58:01;10.40;;;3.67;;
21671;SDS011;10997;52.242;8.168;2023-06-14T19:03:01;6.80;;;3.28;;
21671;SDS011;10997;52.242;8.168;2023-06-14T19:08:03;8.95;;;3.40;;
21671;SDS011;10997;52.242;8.168;2023-06-14T19:13:04;11.38;;;3.50;;
21671;SDS011;10997;52.242;8.168;2023-06-14T19:18:08;6.10;;;3.57;;
21671;SDS011;10997;52.242;8.168;2023-06-14T19:23:10;4.68;;;3.50;;
21671;SDS011;10997;52.242;8.168;2023-06-14T19:28:11;6.07;;;3.33;;
21671;SDS011;10997;52.242;8.168;2023-06-14T19:33:12;5.13;;;3.70;;
21671;SDS011;10997;52.242;8.168;2023-06-14T19:38:12;5.88;;;3.70;;
21671;SDS011;10997;52.242;8.168;2023-06-14T19:43:19;8.50;;;4.30;;
21671;SDS011;10997;52.242;8.168;2023-06-14T19:48:19;7.18;;;3.80;;
21671;SDS011;10997;52.242;8.168;2023-06-14T19:53:20;6.40;;;3.20;;
21671;SDS011;10997;52.242;8.168;2023-06-14T19:58:21;9.00;;;3.92;;
21671;SDS011;10997;52.242;8.168;2023-06-14T20:03:21;9.40;;;4.10;;
21671;SDS011;10997;52.242;8.168;2023-06-14T20:08:22;6.93;;;3.70;;
21671;SDS011;10997;52.242;8.168;2023-06-14T20:13:24;7.85;;;3.60;;
21671;SDS011;10997;52.242;8.168;2023-06-14T20:18:25;6.22;;;4.00;;
21671;SDS011;10997;52.242;8.168;2023-06-14T20:23:25;6.30;;;3.83;;
21671;SDS011;10997;52.242;8.168;2023-06-14T20:28:26;7.15;;;4.00;;
21671;SDS011;10997;52.242;8.168;2023-06-14T20:33:27;8.13;;;3.97;;
21671;SDS011;10997;52.242;8.168;2023-06-14T20:38:29;9.32;;;4.80;;
21671;SDS011;10997;52.242;8.168;2023-06-14T20:43:30;7.22;;;4.30;;
21671;SDS011;10997;52.242;8.168;2023-06-14T20:48:30;9.35;;;4.45;;
21671;SDS011;10997;52.242;8.168;2023-06-14T20:53:31;8.10;;;4.35;;
21671;SDS011;10997;52.242;8.168;2023-06-14T20:58:32;8.57;;;4.05;;
21671;SDS011;10997;52.242;8.168;2023-06-14T21:03:32;7.20;;;4.93;;
21671;SDS011;10997;52.242;8.168;2023-06-14T21:08:33;11.05;;;4.35;;
21671;SDS011;10997;52.242;8.168;2023-06-14T21:13:33;7.50;;;4.43;;
21671;SDS011;10997;52.242;8.168;2023-06-14T21:18:34;6.95;;;4.40;;
21671;SDS011;10997;52.242;8.168;2023-06-14T21:23:34;6.45;;;4.28;;
21671;SDS011;10997;52.242;8.168;2023-06-14T21:28:35;7.45;;;4.63;;
21671;SDS011;10997;52.242;8.168;2023-06-14T21:33:36;8.20;;;4.72;;
21671;SDS011;10997;52.242;8.168;2023-06-14T21:38:36;9.13;;;4.75;;
21671;SDS011;10997;52.242;8.168;2023-06-14T21:43:37;6.93;;;4.43;;
21671;SDS011;10997;52.242;8.168;2023-06-14T21:48:37;6.88;;;4.68;;
21671;SDS011;10997;52.242;8.168;2023-06-14T21:53:41;9.32;;;4.93;;
21671;SDS011;10997;52.242;8.168;2023-06-14T21:58:44;8.23;;;5.03;;
21671;SDS011;10997;52.242;8.168;2023-06-14T22:03:45;7.68;;;4.82;;
21671;SDS011;10997;52.242;8.168;2023-06-14T22:08:45;9.45;;;4.95;;
21671;SDS011;10997;52.242;8.168;2023-06-14T22:13:46;7.80;;;5.00;;
21671;SDS011;10997;52.242;8.168;2023-06-14T22:18:47;11.52;;;5.43;;
21671;SDS011;10997;52.242;8.168;2023-06-14T22:23:48;8.10;;;5.07;;
21671;SDS011;10997;52.242;8.168;2023-06-14T22:28:48;6.88;;;5.15;;
21671;SDS011;10997;52.242;8.168;2023-06-14T22:33:49;6.88;;;5.03;;
21671;SDS011;10997;52.242;8.168;2023-06-14T22:38:51;9.07;;;4.97;;
21671;SDS011;10997;52.242;8.168;2023-06-14T22:43:51;7.70;;;5.00;;
21671;SDS011;10997;52.242;8.168;2023-06-14T22:48:52;9.82;;;4.90;;
21671;SDS011;10997;52.242;8.168;2023-06-14T22:53:53;8.95;;;5.20;;
21671;SDS011;10997;52.242;8.168;2023-06-14T22:58:53;10.93;;;5.28;;
21671;SDS011;10997;52.242;8.168;2023-06-14T23:03:55;7.63;;;5.32;;
21671;SDS011;10997;52.242;8.168;2023-06-14T23:08:56;10.10;;;5.22;;
21671;SDS011;10997;52.242;8.168;2023-06-14T23:13:59;9.50;;;5.20;;
21671;SDS011;10997;52.242;8.168;2023-06-14T23:19:00;8.00;;;5.80;;
21671;SDS011;10997;52.242;8.168;2023-06-14T23:24:02;9.60;;;5.60;;
21671;SDS011;10997;52.242;8.168;2023-06-14T23:29:02;6.32;;;5.63;;
21671;SDS011;10997;52.242;8.168;2023-06-14T23:34:04;8.57;;;5.32;;
21671;SDS011;10997;52.242;8.168;2023-06-14T23:39:05;8.65;;;6.07;;
21671;SDS011;10997;52.242;8.168;2023-06-14T23:44:06;7.97;;;5.53;;
21671;SDS011;10997;52.242;8.168;2023-06-14T23:49:06;8.43;;;5.47;;
21671;SDS011;10997;52.242;8.168;2023-06-14T23:54:08;8.25;;;5.60;;
21671;SDS011;10997;52.242;8.168;2023-06-14T23:59:12;8.15;;;5.75;;
